sensor_id;sensor_type;location;lat;lon;timestamp;temperature;humidity
38428;DHT22;24211;49.980;19.776;2023-04-01T00:00:10;12.00;99.90
38428;DHT22;24211;49.980;19.776;2023-04-01T00:02:58;12.00;99.90
38428;DHT22;24211;49.980;19.776;2023-04-01T00:05:26;11.90;99.90
38428;DHT22;24211;49.980;19.776;2023-04-01T00:07:53;11.90;99.90
38428;DHT22;24211;49.980;19.776;2023-04-01T00:10:20;11.90;99.90
38428;DHT22;24211;49.980;19.776;2023-04-01T00:12:47;11.90;99.90
38428;DHT22;24211;49.980;19.776;2023-04-01T00:15:15;12.00;99.90
38428;DHT22;24211;49.980;19.776;2023-04-01T00:17:42;12.00;99.90
38428;DHT22;24211;49.980;19.776;2023-04-01T00:20:11;12.10;99.90
38428;DHT22;24211;49.980;19.776;2023-04-01T00:22:38;12.10;99.90
38428;DHT22;24211;49.980;19.776;2023-04-01T00:25:06;12.10;99.90
38428;DHT22;24211;49.980;19.776;2023-04-01T00:27:34;12.10;99.90
38428;DHT22;24211;49.980;19.776;2023-04-01T00:30:02;12.10;99.90
38428;DHT22;24211;49.980;19.776;2023-04-01T00:32:30;12.10;99.90
38428;DHT22;24211;49.980;19.776;2023-04-01T00:34:58;12.10;99.90
38428;DHT22;24211;49.980;19.776;2023-04-01T00:37:27;12.10;99.90
38428;DHT22;24211;49.980;19.776;2023-04-01T00:39:55;12.10;99.90
38428;DHT22;24211;49.980;19.776;2023-04-01T00:42:23;12.00;99.90
38428;DHT22;24211;49.980;19.776;2023-04-01T00:44:52;12.10;99.90
38428;DHT22;24211;49.980;19.776;2023-04-01T00:47:22;12.10;99.90
38428;DHT22;24211;49.980;19.776;2023-04-01T00:49:54;12.10;99.90
38428;DHT22;24211;49.980;19.776;2023-04-01T00:52:23;12.10;99.90
38428;DHT22;24211;49.980;19.776;2023-04-01T00:54:56;12.10;99.90
38428;DHT22;24211;49.980;19.776;2023-04-01T00:57:34;12.10;99.90
38428;DHT22;24211;49.980;19.776;2023-04-01T01:00:06;12.10;99.90
38428;DHT22;24211;49.980;19.776;2023-04-01T01:02:38;12.00;99.90
38428;DHT22;24211;49.980;19.776;2023-04-01T01:05:14;12.10;99.90
38428;DHT22;24211;49.980;19.776;2023-04-01T01:08:01;12.00;99.90
38428;DHT22;24211;49.980;19.776;2023-04-01T01:10:35;12.00;99.90
38428;DHT22;24211;49.980;19.776;2023-04-01T01:24:54;11.90;99.90
38428;DHT22;24211;49.980;19.776;2023-04-01T01:27:31;11.90;99.90
38428;DHT22;24211;49.980;19.776;2023-04-01T01:36:30;11.90;99.90
38428;DHT22;24211;49.980;19.776;2023-04-01T01:39:06;11.90;99.90
38428;DHT22;24211;49.980;19.776;2023-04-01T01:41:36;11.90;99.90
38428;DHT22;24211;49.980;19.776;2023-04-01T01:44:08;11.80;99.90
38428;DHT22;24211;49.980;19.776;2023-04-01T01:46:39;11.80;99.90
38428;DHT22;24211;49.980;19.776;2023-04-01T01:49:10;11.80;99.90
38428;DHT22;24211;49.980;19.776;2023-04-01T01:51:39;11.80;99.90
38428;DHT22;24211;49.980;19.776;2023-04-01T01:54:17;11.80;99.90
38428;DHT22;24211;49.980;19.776;2023-04-01T01:56:48;11.70;99.90
38428;DHT22;24211;49.980;19.776;2023-04-01T01:59:20;11.70;99.90
38428;DHT22;24211;49.980;19.776;2023-04-01T02:01:55;11.80;99.90
38428;DHT22;24211;49.980;19.776;2023-04-01T02:04:25;11.80;99.90
38428;DHT22;24211;49.980;19.776;2023-04-01T02:07:02;11.80;99.90
38428;DHT22;24211;49.980;19.776;2023-04-01T02:09:32;11.70;99.90
38428;DHT22;24211;49.980;19.776;2023-04-01T02:12:05;11.60;99.90
38428;DHT22;24211;49.980;19.776;2023-04-01T02:15:03;11.60;99.90
38428;DHT22;24211;49.980;19.776;2023-04-01T02:17:42;11.60;99.90
38428;DHT22;24211;49.980;19.776;2023-04-01T02:20:19;11.60;99.90
38428;DHT22;24211;49.980;19.776;2023-04-01T02:22:52;11.60;99.90
38428;DHT22;24211;49.980;19.776;2023-04-01T02:25:22;11.60;99.90
38428;DHT22;24211;49.980;19.776;2023-04-01T02:27:53;11.60;99.90
38428;DHT22;24211;49.980;19.776;2023-04-01T02:30:25;11.60;99.90
38428;DHT22;24211;49.980;19.776;2023-04-01T02:32:57;11.60;99.90
38428;DHT22;24211;49.980;19.776;2023-04-01T02:35:26;11.50;99.90
38428;DHT22;24211;49.980;19.776;2023-04-01T02:37:55;11.50;99.90
38428;DHT22;24211;49.980;19.776;2023-04-01T02:40:22;11.50;99.90
38428;DHT22;24211;49.980;19.776;2023-04-01T02:42:50;11.50;99.90
38428;DHT22;24211;49.980;19.776;2023-04-01T02:45:17;11.50;99.90
38428;DHT22;24211;49.980;19.776;2023-04-01T02:47:45;11.50;99.90
38428;DHT22;24211;49.980;19.776;2023-04-01T02:50:12;11.50;99.90
38428;DHT22;24211;49.980;19.776;2023-04-01T02:52:39;11.50;99.90
38428;DHT22;24211;49.980;19.776;2023-04-01T02:55:07;11.50;99.90
38428;DHT22;24211;49.980;19.776;2023-04-01T02:57:35;11.50;99.90
38428;DHT22;24211;49.980;19.776;2023-04-01T03:00:03;11.50;99.90
38428;DHT22;24211;49.980;19.776;2023-04-01T03:02:30;11.40;99.90
38428;DHT22;24211;49.980;19.776;2023-04-01T03:04:58;11.50;99.90
38428;DHT22;24211;49.980;19.776;2023-04-01T03:07:25;11.50;99.90
38428;DHT22;24211;49.980;19.776;2023-04-01T03:09:53;11.50;99.90
38428;DHT22;24211;49.980;19.776;2023-04-01T03:12:20;11.50;99.90
38428;DHT22;24211;49.980;19.776;2023-04-01T03:14:50;11.40;99.90
38428;DHT22;24211;49.980;19.776;2023-04-01T03:17:17;11.40;99.90
38428;DHT22;24211;49.980;19.776;2023-04-01T03:19:45;11.40;99.90
38428;DHT22;24211;49.980;19.776;2023-04-01T03:22:13;11.40;99.90
38428;DHT22;24211;49.980;19.776;2023-04-01T03:24:40;11.40;99.90
38428;DHT22;24211;49.980;19.776;2023-04-01T03:27:08;11.40;99.90
38428;DHT22;24211;49.980;19.776;2023-04-01T03:29:35;11.40;99.90
38428;DHT22;24211;49.980;19.776;2023-04-01T03:32:02;11.30;99.90
38428;DHT22;24211;49.980;19.776;2023-04-01T03:34:30;11.40;99.90
38428;DHT22;24211;49.980;19.776;2023-04-01T03:36:58;11.40;99.90
38428;DHT22;24211;49.980;19.776;2023-04-01T03:39:25;11.40;99.90
38428;DHT22;24211;49.980;19.776;2023-04-01T03:41:54;11.40;99.90
38428;DHT22;24211;49.980;19.776;2023-04-01T03:44:22;11.40;99.90
38428;DHT22;24211;49.980;19.776;2023-04-01T03:46:52;11.40;99.90
38428;DHT22;24211;49.980;19.776;2023-04-01T03:49:19;11.50;99.90
38428;DHT22;24211;49.980;19.776;2023-04-01T03:51:47;11.40;99.90
38428;DHT22;24211;49.980;19.776;2023-04-01T03:54:14;11.40;99.90
38428;DHT22;24211;49.980;19.776;2023-04-01T03:56:43;11.50;99.90
38428;DHT22;24211;49.980;19.776;2023-04-01T03:59:11;11.50;99.90
38428;DHT22;24211;49.980;19.776;2023-04-01T04:01:39;11.50;99.90
38428;DHT22;24211;49.980;19.776;2023-04-01T04:04:07;11.50;99.90
38428;DHT22;24211;49.980;19.776;2023-04-01T04:06:38;11.50;99.90
38428;DHT22;24211;49.980;19.776;2023-04-01T04:09:06;11.50;99.90
38428;DHT22;24211;49.980;19.776;2023-04-01T04:11:34;11.50;99.90
38428;DHT22;24211;49.980;19.776;2023-04-01T04:14:02;11.40;99.90
38428;DHT22;24211;49.980;19.776;2023-04-01T04:16:29;11.30;99.90
38428;DHT22;24211;49.980;19.776;2023-04-01T04:19:00;11.30;99.90
38428;DHT22;24211;49.980;19.776;2023-04-01T04:21:28;11.30;99.90
38428;DHT22;24211;49.980;19.776;2023-04-01T04:23:55;11.30;99.90
38428;DHT22;24211;49.980;19.776;2023-04-01T04:26:23;11.30;99.90
38428;DHT22;24211;49.980;19.776;2023-04-01T04:28:58;11.30;99.90
38428;DHT22;24211;49.980;19.776;2023-04-01T04:31:26;11.30;99.90
38428;DHT22;24211;49.980;19.776;2023-04-01T04:33:59;11.30;99.90
38428;DHT22;24211;49.980;19.776;2023-04-01T04:36:30;11.30;99.90
38428;DHT22;24211;49.980;19.776;2023-04-01T04:38:58;11.30;99.90
38428;DHT22;24211;49.980;19.776;2023-04-01T04:41:28;11.30;99.90
38428;DHT22;24211;49.980;19.776;2023-04-01T04:43:56;11.30;99.90
38428;DHT22;24211;49.980;19.776;2023-04-01T04:46:25;11.30;99.90
38428;DHT22;24211;49.980;19.776;2023-04-01T04:48:59;11.30;99.90
38428;DHT22;24211;49.980;19.776;2023-04-01T04:51:26;11.30;99.90
38428;DHT22;24211;49.980;19.776;2023-04-01T04:53:54;11.30;99.90
38428;DHT22;24211;49.980;19.776;2023-04-01T04:56:31;11.20;99.90
38428;DHT22;24211;49.980;19.776;2023-04-01T04:59:05;11.20;99.90
38428;DHT22;24211;49.980;19.776;2023-04-01T05:01:48;11.20;99.90
38428;DHT22;24211;49.980;19.776;2023-04-01T05:04:17;11.20;99.90
38428;DHT22;24211;49.980;19.776;2023-04-01T05:06:44;11.10;99.90
38428;DHT22;24211;49.980;19.776;2023-04-01T05:09:12;11.10;99.90
38428;DHT22;24211;49.980;19.776;2023-04-01T05:11:40;11.10;99.90
38428;DHT22;24211;49.980;19.776;2023-04-01T05:14:15;11.10;99.90
38428;DHT22;24211;49.980;19.776;2023-04-01T05:16:51;11.20;99.90
38428;DHT22;24211;49.980;19.776;2023-04-01T05:19:19;11.20;99.90
38428;DHT22;24211;49.980;19.776;2023-04-01T05:21:46;11.30;99.90
38428;DHT22;24211;49.980;19.776;2023-04-01T05:24:15;11.30;99.90
38428;DHT22;24211;49.980;19.776;2023-04-01T05:26:44;11.30;99.90
38428;DHT22;24211;49.980;19.776;2023-04-01T05:29:11;11.30;99.90
38428;DHT22;24211;49.980;19.776;2023-04-01T05:31:40;11.40;99.90
38428;DHT22;24211;49.980;19.776;2023-04-01T05:34:07;11.50;99.90
38428;DHT22;24211;49.980;19.776;2023-04-01T05:36:34;11.50;99.90
38428;DHT22;24211;49.980;19.776;2023-04-01T05:39:03;11.50;99.90
38428;DHT22;24211;49.980;19.776;2023-04-01T05:41:30;11.60;99.90
38428;DHT22;24211;49.980;19.776;2023-04-01T05:43:57;11.60;99.90
38428;DHT22;24211;49.980;19.776;2023-04-01T05:46:40;11.70;99.90
38428;DHT22;24211;49.980;19.776;2023-04-01T05:49:22;11.80;99.90
38428;DHT22;24211;49.980;19.776;2023-04-01T05:51:50;11.80;99.90
38428;DHT22;24211;49.980;19.776;2023-04-01T05:54:19;11.90;99.90
38428;DHT22;24211;49.980;19.776;2023-04-01T05:56:47;11.90;99.90
38428;DHT22;24211;49.980;19.776;2023-04-01T05:59:15;11.90;99.90
38428;DHT22;24211;49.980;19.776;2023-04-01T06:01:42;12.00;99.90
38428;DHT22;24211;49.980;19.776;2023-04-01T06:04:14;12.00;99.90
38428;DHT22;24211;49.980;19.776;2023-04-01T06:06:44;12.10;99.90
38428;DHT22;24211;49.980;19.776;2023-04-01T06:09:25;12.10;99.90
38428;DHT22;24211;49.980;19.776;2023-04-01T06:15:13;12.20;99.90
38428;DHT22;24211;49.980;19.776;2023-04-01T06:21:32;12.30;99.90
38428;DHT22;24211;49.980;19.776;2023-04-01T06:54:12;12.70;99.90
38428;DHT22;24211;49.980;19.776;2023-04-01T06:57:36;12.80;99.90
38428;DHT22;24211;49.980;19.776;2023-04-01T07:00:35;12.80;99.90
38428;DHT22;24211;49.980;19.776;2023-04-01T07:03:23;13.00;99.90
38428;DHT22;24211;49.980;19.776;2023-04-01T07:06:08;13.00;99.90
38428;DHT22;24211;49.980;19.776;2023-04-01T07:08:49;13.00;99.90
38428;DHT22;24211;49.980;19.776;2023-04-01T07:11:31;13.10;99.90
38428;DHT22;24211;49.980;19.776;2023-04-01T07:14:34;13.00;99.90
38428;DHT22;24211;49.980;19.776;2023-04-01T07:17:15;13.20;99.90
38428;DHT22;24211;49.980;19.776;2023-04-01T07:23:03;13.40;99.90
38428;DHT22;24211;49.980;19.776;2023-04-01T07:25:55;13.40;99.90
38428;DHT22;24211;49.980;19.776;2023-04-01T07:28:42;13.40;99.90
38428;DHT22;24211;49.980;19.776;2023-04-01T07:31:34;13.40;99.90
38428;DHT22;24211;49.980;19.776;2023-04-01T07:34:17;13.50;99.90
38428;DHT22;24211;49.980;19.776;2023-04-01T07:42:54;13.60;99.90
38428;DHT22;24211;49.980;19.776;2023-04-01T07:48:33;13.70;99.90
38428;DHT22;24211;49.980;19.776;2023-04-01T07:54:03;13.50;99.90
38428;DHT22;24211;49.980;19.776;2023-04-01T07:57:19;13.40;99.90
38428;DHT22;24211;49.980;19.776;2023-04-01T08:00:22;13.50;99.90
38428;DHT22;24211;49.980;19.776;2023-04-01T08:06:42;13.70;99.90
38428;DHT22;24211;49.980;19.776;2023-04-01T08:13:16;14.00;99.90
38428;DHT22;24211;49.980;19.776;2023-04-01T08:16:30;14.20;99.90
38428;DHT22;24211;49.980;19.776;2023-04-01T08:22:02;14.30;99.90
38428;DHT22;24211;49.980;19.776;2023-04-01T08:24:41;14.40;99.90
38428;DHT22;24211;49.980;19.776;2023-04-01T08:30:33;14.70;99.90
38428;DHT22;24211;49.980;19.776;2023-04-01T08:38:52;14.70;99.90
38428;DHT22;24211;49.980;19.776;2023-04-01T08:44:41;14.70;99.90
38428;DHT22;24211;49.980;19.776;2023-04-01T08:56:54;15.60;99.90
38428;DHT22;24211;49.980;19.776;2023-04-01T09:11:26;15.70;99.90
38428;DHT22;24211;49.980;19.776;2023-04-01T09:14:39;15.70;99.90
38428;DHT22;24211;49.980;19.776;2023-04-01T09:24:04;15.50;99.90
38428;DHT22;24211;49.980;19.776;2023-04-01T09:36:04;15.60;99.90
38428;DHT22;24211;49.980;19.776;2023-04-01T09:39:12;15.60;99.90
38428;DHT22;24211;49.980;19.776;2023-04-01T09:45:03;15.60;99.90
38428;DHT22;24211;49.980;19.776;2023-04-01T10:09:13;14.80;99.90
38428;DHT22;24211;49.980;19.776;2023-04-01T10:15:19;14.90;99.90
38428;DHT22;24211;49.980;19.776;2023-04-01T10:21:28;15.10;99.90
38428;DHT22;24211;49.980;19.776;2023-04-01T10:24:33;15.20;99.90
38428;DHT22;24211;49.980;19.776;2023-04-01T10:27:20;15.10;99.90
38428;DHT22;24211;49.980;19.776;2023-04-01T10:42:49;15.20;99.90
38428;DHT22;24211;49.980;19.776;2023-04-01T11:09:20;16.10;99.90
38428;DHT22;24211;49.980;19.776;2023-04-01T11:15:26;16.40;99.90
38428;DHT22;24211;49.980;19.776;2023-04-01T11:18:25;16.60;99.90
38428;DHT22;24211;49.980;19.776;2023-04-01T11:24:46;17.30;99.90
38428;DHT22;24211;49.980;19.776;2023-04-01T11:27:46;17.50;99.90
38428;DHT22;24211;49.980;19.776;2023-04-01T11:30:53;17.70;99.90
38428;DHT22;24211;49.980;19.776;2023-04-01T11:33:38;18.10;99.90
38428;DHT22;24211;49.980;19.776;2023-04-01T11:39:37;18.00;99.90
38428;DHT22;24211;49.980;19.776;2023-04-01T11:46:25;17.40;99.90
38428;DHT22;24211;49.980;19.776;2023-04-01T12:01:36;17.00;99.90
38428;DHT22;24211;49.980;19.776;2023-04-01T12:08:07;17.90;99.90
38428;DHT22;24211;49.980;19.776;2023-04-01T12:25:45;17.60;99.90
38428;DHT22;24211;49.980;19.776;2023-04-01T12:31:34;17.80;99.90
38428;DHT22;24211;49.980;19.776;2023-04-01T12:37:28;17.80;99.90
38428;DHT22;24211;49.980;19.776;2023-04-01T12:46:03;16.50;99.90
38428;DHT22;24211;49.980;19.776;2023-04-01T12:52:14;16.30;99.90
38428;DHT22;24211;49.980;19.776;2023-04-01T13:00:41;15.90;99.90
38428;DHT22;24211;49.980;19.776;2023-04-01T13:03:30;15.60;99.90
38428;DHT22;24211;49.980;19.776;2023-04-01T13:09:25;15.30;99.90
38428;DHT22;24211;49.980;19.776;2023-04-01T13:15:37;15.10;99.90
38428;DHT22;24211;49.980;19.776;2023-04-01T13:18:26;15.10;99.90
38428;DHT22;24211;49.980;19.776;2023-04-01T13:21:19;15.10;99.90
38428;DHT22;24211;49.980;19.776;2023-04-01T13:40:10;14.60;99.90
38428;DHT22;24211;49.980;19.776;2023-04-01T13:43:11;14.60;99.90
38428;DHT22;24211;49.980;19.776;2023-04-01T13:46:24;14.70;99.90
38428;DHT22;24211;49.980;19.776;2023-04-01T13:49:26;14.50;99.90
38428;DHT22;24211;49.980;19.776;2023-04-01T14:01:42;14.70;99.90
38428;DHT22;24211;49.980;19.776;2023-04-01T14:07:42;14.40;99.90
38428;DHT22;24211;49.980;19.776;2023-04-01T14:10:55;14.40;99.90
38428;DHT22;24211;49.980;19.776;2023-04-01T14:16:58;14.40;99.90
38428;DHT22;24211;49.980;19.776;2023-04-01T14:37:23;14.30;99.90
38428;DHT22;24211;49.980;19.776;2023-04-01T14:40:20;14.40;99.90
38428;DHT22;24211;49.980;19.776;2023-04-01T14:49:39;14.50;99.90
38428;DHT22;24211;49.980;19.776;2023-04-01T14:52:38;14.60;99.90
38428;DHT22;24211;49.980;19.776;2023-04-01T14:55:31;14.60;99.90
38428;DHT22;24211;49.980;19.776;2023-04-01T15:12:26;14.60;99.90
38428;DHT22;24211;49.980;19.776;2023-04-01T15:15:25;14.60;99.90
38428;DHT22;24211;49.980;19.776;2023-04-01T15:35:39;14.10;99.90
38428;DHT22;24211;49.980;19.776;2023-04-01T15:41:42;14.10;99.90
38428;DHT22;24211;49.980;19.776;2023-04-01T15:47:42;14.10;99.90
38428;DHT22;24211;49.980;19.776;2023-04-01T16:02:22;14.00;99.90
38428;DHT22;24211;49.980;19.776;2023-04-01T16:05:51;13.90;99.90
38428;DHT22;24211;49.980;19.776;2023-04-01T16:11:21;13.70;99.90
38428;DHT22;24211;49.980;19.776;2023-04-01T16:17:12;13.50;99.90
38428;DHT22;24211;49.980;19.776;2023-04-01T16:23:02;13.30;99.90
38428;DHT22;24211;49.980;19.776;2023-04-01T16:25:44;13.20;99.90
38428;DHT22;24211;49.980;19.776;2023-04-01T16:31:43;13.00;99.90
38428;DHT22;24211;49.980;19.776;2023-04-01T16:34:44;13.00;99.90
38428;DHT22;24211;49.980;19.776;2023-04-01T16:37:32;13.00;99.90
38428;DHT22;24211;49.980;19.776;2023-04-01T16:40:22;13.10;99.90
38428;DHT22;24211;49.980;19.776;2023-04-01T16:43:20;13.10;99.90
38428;DHT22;24211;49.980;19.776;2023-04-01T16:52:12;13.20;99.90
38428;DHT22;24211;49.980;19.776;2023-04-01T16:55:00;13.20;99.90
38428;DHT22;24211;49.980;19.776;2023-04-01T17:00:25;13.20;99.90
38428;DHT22;24211;49.980;19.776;2023-04-01T17:11:55;13.00;99.90
38428;DHT22;24211;49.980;19.776;2023-04-01T17:23:27;12.80;99.90
38428;DHT22;24211;49.980;19.776;2023-04-01T17:29:22;12.80;99.90
38428;DHT22;24211;49.980;19.776;2023-04-01T17:32:04;12.80;99.90
38428;DHT22;24211;49.980;19.776;2023-04-01T17:37:54;12.80;99.90
38428;DHT22;24211;49.980;19.776;2023-04-01T17:43:53;12.70;99.90
38428;DHT22;24211;49.980;19.776;2023-04-01T17:52:44;12.70;99.90
38428;DHT22;24211;49.980;19.776;2023-04-01T18:01:21;12.80;99.90
38428;DHT22;24211;49.980;19.776;2023-04-01T18:07:34;12.70;99.90
38428;DHT22;24211;49.980;19.776;2023-04-01T18:10:48;12.70;99.90
38428;DHT22;24211;49.980;19.776;2023-04-01T18:14:03;12.70;99.90
38428;DHT22;24211;49.980;19.776;2023-04-01T18:20:11;12.70;99.90
38428;DHT22;24211;49.980;19.776;2023-04-01T18:25:53;12.60;99.90
38428;DHT22;24211;49.980;19.776;2023-04-01T18:31:08;12.50;99.90
38428;DHT22;24211;49.980;19.776;2023-04-01T18:34:13;12.50;99.90
38428;DHT22;24211;49.980;19.776;2023-04-01T18:40:43;12.50;99.90
38428;DHT22;24211;49.980;19.776;2023-04-01T18:46:00;12.40;99.90
38428;DHT22;24211;49.980;19.776;2023-04-01T18:51:49;12.40;99.90
38428;DHT22;24211;49.980;19.776;2023-04-01T18:54:32;12.40;99.90
38428;DHT22;24211;49.980;19.776;2023-04-01T18:57:13;12.40;99.90
38428;DHT22;24211;49.980;19.776;2023-04-01T18:59:57;12.40;99.90
38428;DHT22;24211;49.980;19.776;2023-04-01T19:02:40;12.30;99.90
38428;DHT22;24211;49.980;19.776;2023-04-01T19:05:40;12.30;99.90
38428;DHT22;24211;49.980;19.776;2023-04-01T19:08:39;12.30;99.90
38428;DHT22;24211;49.980;19.776;2023-04-01T19:13:54;12.20;99.90
38428;DHT22;24211;49.980;19.776;2023-04-01T19:22:35;12.10;99.90
38428;DHT22;24211;49.980;19.776;2023-04-01T19:25:20;12.10;99.90
38428;DHT22;24211;49.980;19.776;2023-04-01T19:31:44;12.10;99.90
38428;DHT22;24211;49.980;19.776;2023-04-01T19:34:27;12.00;99.90
38428;DHT22;24211;49.980;19.776;2023-04-01T19:40:30;11.90;99.90
38428;DHT22;24211;49.980;19.776;2023-04-01T19:49:06;11.90;99.90
38428;DHT22;24211;49.980;19.776;2023-04-01T19:52:20;11.90;99.90
38428;DHT22;24211;49.980;19.776;2023-04-01T19:55:23;11.90;99.90
38428;DHT22;24211;49.980;19.776;2023-04-01T19:58:09;11.90;99.90
38428;DHT22;24211;49.980;19.776;2023-04-01T20:00:52;11.80;99.90
38428;DHT22;24211;49.980;19.776;2023-04-01T20:06:57;11.80;99.90
38428;DHT22;24211;49.980;19.776;2023-04-01T20:14:58;11.70;99.90
38428;DHT22;24211;49.980;19.776;2023-04-01T20:17:43;11.70;99.90
38428;DHT22;24211;49.980;19.776;2023-04-01T20:25:21;11.60;99.90
38428;DHT22;24211;49.980;19.776;2023-04-01T20:28:06;11.60;99.90
38428;DHT22;24211;49.980;19.776;2023-04-01T20:50:28;11.60;99.90
38428;DHT22;24211;49.980;19.776;2023-04-01T20:53:12;11.60;99.90
38428;DHT22;24211;49.980;19.776;2023-04-01T21:07:22;11.50;99.90
38428;DHT22;24211;49.980;19.776;2023-04-01T21:10:17;11.50;99.90
38428;DHT22;24211;49.980;19.776;2023-04-01T21:12:53;11.50;99.90
38428;DHT22;24211;49.980;19.776;2023-04-01T21:27:13;11.50;99.90
38428;DHT22;24211;49.980;19.776;2023-04-01T21:29:58;11.40;99.90
38428;DHT22;24211;49.980;19.776;2023-04-01T21:38:56;11.40;99.90
38428;DHT22;24211;49.980;19.776;2023-04-01T21:44:41;11.40;99.90
38428;DHT22;24211;49.980;19.776;2023-04-01T21:54:46;11.40;99.90
38428;DHT22;24211;49.980;19.776;2023-04-01T22:00:32;11.40;99.90
38428;DHT22;24211;49.980;19.776;2023-04-01T22:20:33;11.40;99.90
38428;DHT22;24211;49.980;19.776;2023-04-01T22:23:13;11.40;99.90
38428;DHT22;24211;49.980;19.776;2023-04-01T22:26:23;11.40;99.90
38428;DHT22;24211;49.980;19.776;2023-04-01T22:32:05;11.40;99.90
38428;DHT22;24211;49.980;19.776;2023-04-01T22:34:49;11.40;99.90
38428;DHT22;24211;49.980;19.776;2023-04-01T22:40:49;11.40;99.90
38428;DHT22;24211;49.980;19.776;2023-04-01T22:43:45;11.40;99.90
38428;DHT22;24211;49.980;19.776;2023-04-01T22:49:45;11.40;99.90
38428;DHT22;24211;49.980;19.776;2023-04-01T22:52:37;11.30;99.90
38428;DHT22;24211;49.980;19.776;2023-04-01T22:55:22;11.30;99.90
38428;DHT22;24211;49.980;19.776;2023-04-01T22:58:04;11.30;99.90
38428;DHT22;24211;49.980;19.776;2023-04-01T23:00:50;11.30;99.90
38428;DHT22;24211;49.980;19.776;2023-04-01T23:03:29;11.30;99.90
38428;DHT22;24211;49.980;19.776;2023-04-01T23:06:01;11.30;99.90
38428;DHT22;24211;49.980;19.776;2023-04-01T23:11:32;11.30;99.90
38428;DHT22;24211;49.980;19.776;2023-04-01T23:19:32;11.30;99.90
38428;DHT22;24211;49.980;19.776;2023-04-01T23:22:33;11.30;99.90
38428;DHT22;24211;49.980;19.776;2023-04-01T23:33:21;11.20;99.90
38428;DHT22;24211;49.980;19.776;2023-04-01T23:36:01;11.20;99.90
38428;DHT22;24211;49.980;19.776;2023-04-01T23:38:40;11.20;99.90
38428;DHT22;24211;49.980;19.776;2023-04-01T23:41:32;11.20;99.90
38428;DHT22;24211;49.980;19.776;2023-04-01T23:44:04;11.20;99.90
38428;DHT22;24211;49.980;19.776;2023-04-01T23:46:37;11.20;99.90
38428;DHT22;24211;49.980;19.776;2023-04-01T23:49:35;11.20;99.90
38428;DHT22;24211;49.980;19.776;2023-04-01T23:52:17;11.10;99.90
38428;DHT22;24211;49.980;19.776;2023-04-01T23:54:53;11.10;99.90
38428;DHT22;24211;49.980;19.776;2023-04-01T23:57:29;11.10;99.90
